sensor_id;sensor_type;location;lat;lon;timestamp;P1;durP1;ratioP1;P2;durP2;ratioP2
2858;SDS011;1437;53.250;10.406;2022-11-04T00:01:02;8.03;;;3.83;;
2858;SDS011;1437;53.250;10.406;2022-11-04T00:03:32;7.50;;;5.00;;
2858;SDS011;1437;53.250;10.406;2022-11-04T00:05:59;8.33;;;3.40;;
2858;SDS011;1437;53.250;10.406;2022-11-04T00:08:27;6.40;;;2.80;;
2858;SDS011;1437;53.250;10.406;2022-11-04T00:10:56;5.00;;;3.33;;
2858;SDS011;1437;53.250;10.406;2022-11-04T00:13:41;5.00;;;3.27;;
2858;SDS011;1437;53.250;10.406;2022-11-04T00:16:08;7.77;;;3.70;;
2858;SDS011;1437;53.250;10.406;2022-11-04T00:18:53;5.63;;;3.20;;
2858;SDS011;1437;53.250;10.406;2022-11-04T00:21:21;5.37;;;3.30;;
2858;SDS011;1437;53.250;10.406;2022-11-04T00:24:07;7.20;;;3.43;;
2858;SDS011;1437;53.250;10.406;2022-11-04T00:26:54;9.03;;;4.53;;
2858;SDS011;1437;53.250;10.406;2022-11-04T00:29:39;5.03;;;3.33;;
2858;SDS011;1437;53.250;10.406;2022-11-04T00:32:06;9.03;;;3.70;;
2858;SDS011;1437;53.250;10.406;2022-11-04T00:34:51;5.13;;;3.27;;
2858;SDS011;1437;53.250;10.406;2022-11-04T00:37:18;8.10;;;3.80;;
2858;SDS011;1437;53.250;10.406;2022-11-04T00:39:45;9.20;;;3.53;;
2858;SDS011;1437;53.250;10.406;2022-11-04T00:42:13;8.17;;;3.67;;
2858;SDS011;1437;53.250;10.406;2022-11-04T00:44:40;8.87;;;4.07;;
2858;SDS011;1437;53.250;10.406;2022-11-04T00:47:07;5.87;;;3.10;;
2858;SDS011;1437;53.250;10.406;2022-11-04T00:49:34;4.13;;;3.10;;
2858;SDS011;1437;53.250;10.406;2022-11-04T00:52:01;8.10;;;4.43;;
2858;SDS011;1437;53.250;10.406;2022-11-04T00:54:28;6.03;;;2.87;;
2858;SDS011;1437;53.250;10.406;2022-11-04T00:56:58;8.93;;;5.87;;
2858;SDS011;1437;53.250;10.406;2022-11-04T00:59:26;9.57;;;3.70;;
2858;SDS011;1437;53.250;10.406;2022-11-04T01:01:54;14.97;;;3.53;;
2858;SDS011;1437;53.250;10.406;2022-11-04T01:04:21;9.57;;;4.60;;
2858;SDS011;1437;53.250;10.406;2022-11-04T01:06:48;6.33;;;3.87;;
2858;SDS011;1437;53.250;10.406;2022-11-04T01:09:15;6.87;;;4.07;;
2858;SDS011;1437;53.250;10.406;2022-11-04T01:11:42;7.40;;;4.13;;
2858;SDS011;1437;53.250;10.406;2022-11-04T01:14:09;11.53;;;3.70;;
2858;SDS011;1437;53.250;10.406;2022-11-04T01:16:40;7.40;;;3.90;;
2858;SDS011;1437;53.250;10.406;2022-11-04T01:19:08;7.20;;;3.97;;
2858;SDS011;1437;53.250;10.406;2022-11-04T01:21:35;6.90;;;4.07;;
2858;SDS011;1437;53.250;10.406;2022-11-04T01:24:02;8.03;;;4.17;;
2858;SDS011;1437;53.250;10.406;2022-11-04T01:26:29;8.47;;;3.97;;
2858;SDS011;1437;53.250;10.406;2022-11-04T01:28:56;7.10;;;2.93;;
2858;SDS011;1437;53.250;10.406;2022-11-04T01:31:30;8.17;;;3.73;;
2858;SDS011;1437;53.250;10.406;2022-11-04T01:33:58;6.93;;;3.50;;
2858;SDS011;1437;53.250;10.406;2022-11-04T01:36:25;6.40;;;3.80;;
2858;SDS011;1437;53.250;10.406;2022-11-04T01:39:01;12.70;;;3.10;;
2858;SDS011;1437;53.250;10.406;2022-11-04T01:41:29;8.33;;;4.00;;
2858;SDS011;1437;53.250;10.406;2022-11-04T01:43:57;3.83;;;2.90;;
2858;SDS011;1437;53.250;10.406;2022-11-04T01:46:28;5.07;;;4.00;;
2858;SDS011;1437;53.250;10.406;2022-11-04T01:48:58;5.80;;;4.30;;
2858;SDS011;1437;53.250;10.406;2022-11-04T01:51:27;5.83;;;3.80;;
2858;SDS011;1437;53.250;10.406;2022-11-04T01:53:56;6.97;;;4.50;;
2858;SDS011;1437;53.250;10.406;2022-11-04T01:56:23;5.63;;;4.00;;
2858;SDS011;1437;53.250;10.406;2022-11-04T01:58:52;8.20;;;4.40;;
2858;SDS011;1437;53.250;10.406;2022-11-04T02:01:21;11.80;;;4.60;;
2858;SDS011;1437;53.250;10.406;2022-11-04T02:03:49;8.60;;;4.03;;
2858;SDS011;1437;53.250;10.406;2022-11-04T02:06:18;10.30;;;4.77;;
2858;SDS011;1437;53.250;10.406;2022-11-04T02:08:45;5.50;;;4.10;;
2858;SDS011;1437;53.250;10.406;2022-11-04T02:11:13;6.27;;;4.07;;
2858;SDS011;1437;53.250;10.406;2022-11-04T02:13:55;6.33;;;3.90;;
2858;SDS011;1437;53.250;10.406;2022-11-04T02:16:27;7.33;;;4.80;;
2858;SDS011;1437;53.250;10.406;2022-11-04T02:18:57;10.17;;;4.90;;
2858;SDS011;1437;53.250;10.406;2022-11-04T02:21:38;8.03;;;4.00;;
2858;SDS011;1437;53.250;10.406;2022-11-04T02:24:14;11.90;;;4.67;;
2858;SDS011;1437;53.250;10.406;2022-11-04T02:27:00;9.70;;;4.17;;
2858;SDS011;1437;53.250;10.406;2022-11-04T02:29:34;7.10;;;4.67;;
2858;SDS011;1437;53.250;10.406;2022-11-04T02:32:05;9.87;;;5.27;;
2858;SDS011;1437;53.250;10.406;2022-11-04T02:34:39;9.97;;;4.63;;
2858;SDS011;1437;53.250;10.406;2022-11-04T02:37:07;9.50;;;5.17;;
2858;SDS011;1437;53.250;10.406;2022-11-04T02:39:42;9.20;;;4.10;;
2858;SDS011;1437;53.250;10.406;2022-11-04T02:42:16;7.13;;;4.10;;
2858;SDS011;1437;53.250;10.406;2022-11-04T02:44:45;7.00;;;4.37;;
2858;SDS011;1437;53.250;10.406;2022-11-04T02:47:15;8.90;;;5.17;;
2858;SDS011;1437;53.250;10.406;2022-11-04T02:49:44;8.50;;;5.30;;
2858;SDS011;1437;53.250;10.406;2022-11-04T02:52:14;10.17;;;5.10;;
2858;SDS011;1437;53.250;10.406;2022-11-04T02:54:43;9.53;;;6.40;;
2858;SDS011;1437;53.250;10.406;2022-11-04T02:57:12;11.30;;;6.07;;
2858;SDS011;1437;53.250;10.406;2022-11-04T02:59:41;8.00;;;5.10;;
2858;SDS011;1437;53.250;10.406;2022-11-04T03:02:11;7.10;;;4.80;;
2858;SDS011;1437;53.250;10.406;2022-11-04T03:04:40;9.60;;;5.70;;
2858;SDS011;1437;53.250;10.406;2022-11-04T03:07:09;11.13;;;5.57;;
2858;SDS011;1437;53.250;10.406;2022-11-04T03:09:37;10.30;;;6.47;;
2858;SDS011;1437;53.250;10.406;2022-11-04T03:12:05;15.70;;;6.00;;
2858;SDS011;1437;53.250;10.406;2022-11-04T03:14:36;9.53;;;5.67;;
2858;SDS011;1437;53.250;10.406;2022-11-04T03:17:04;8.00;;;5.63;;
2858;SDS011;1437;53.250;10.406;2022-11-04T03:19:35;9.00;;;5.60;;
2858;SDS011;1437;53.250;10.406;2022-11-04T03:22:03;12.13;;;6.50;;
2858;SDS011;1437;53.250;10.406;2022-11-04T03:24:30;12.63;;;5.83;;
2858;SDS011;1437;53.250;10.406;2022-11-04T03:26:58;12.40;;;5.93;;
2858;SDS011;1437;53.250;10.406;2022-11-04T03:29:27;13.03;;;6.47;;
2858;SDS011;1437;53.250;10.406;2022-11-04T03:31:59;11.87;;;6.23;;
2858;SDS011;1437;53.250;10.406;2022-11-04T03:34:28;6.80;;;5.03;;
2858;SDS011;1437;53.250;10.406;2022-11-04T03:36:56;7.33;;;5.00;;
2858;SDS011;1437;53.250;10.406;2022-11-04T03:39:23;9.00;;;5.50;;
2858;SDS011;1437;53.250;10.406;2022-11-04T03:41:51;8.80;;;6.30;;
2858;SDS011;1437;53.250;10.406;2022-11-04T03:44:19;8.23;;;5.10;;
2858;SDS011;1437;53.250;10.406;2022-11-04T03:46:46;7.30;;;5.10;;
2858;SDS011;1437;53.250;10.406;2022-11-04T03:49:13;11.37;;;5.30;;
2858;SDS011;1437;53.250;10.406;2022-11-04T03:51:41;9.03;;;5.47;;
2858;SDS011;1437;53.250;10.406;2022-11-04T03:54:10;8.67;;;5.47;;
2858;SDS011;1437;53.250;10.406;2022-11-04T03:56:44;10.80;;;5.90;;
2858;SDS011;1437;53.250;10.406;2022-11-04T03:59:30;8.90;;;4.63;;
2858;SDS011;1437;53.250;10.406;2022-11-04T04:02:02;7.60;;;4.83;;
2858;SDS011;1437;53.250;10.406;2022-11-04T04:04:32;7.47;;;4.43;;
2858;SDS011;1437;53.250;10.406;2022-11-04T04:07:00;12.63;;;5.20;;
2858;SDS011;1437;53.250;10.406;2022-11-04T04:09:31;8.83;;;5.20;;
2858;SDS011;1437;53.250;10.406;2022-11-04T04:12:05;7.17;;;4.77;;
2858;SDS011;1437;53.250;10.406;2022-11-04T04:14:34;8.43;;;5.30;;
2858;SDS011;1437;53.250;10.406;2022-11-04T04:17:06;6.23;;;4.43;;
2858;SDS011;1437;53.250;10.406;2022-11-04T04:19:34;7.70;;;3.97;;
2858;SDS011;1437;53.250;10.406;2022-11-04T04:22:03;8.27;;;4.97;;
2858;SDS011;1437;53.250;10.406;2022-11-04T04:24:34;7.97;;;3.70;;
2858;SDS011;1437;53.250;10.406;2022-11-04T04:27:20;7.60;;;4.63;;
2858;SDS011;1437;53.250;10.406;2022-11-04T04:29:57;7.23;;;4.20;;
2858;SDS011;1437;53.250;10.406;2022-11-04T04:32:26;8.83;;;5.00;;
2858;SDS011;1437;53.250;10.406;2022-11-04T04:34:54;7.80;;;4.10;;
2858;SDS011;1437;53.250;10.406;2022-11-04T04:37:41;6.60;;;4.03;;
2858;SDS011;1437;53.250;10.406;2022-11-04T04:40:11;4.60;;;3.53;;
2858;SDS011;1437;53.250;10.406;2022-11-04T04:42:57;9.00;;;4.77;;
2858;SDS011;1437;53.250;10.406;2022-11-04T04:45:43;7.27;;;3.67;;
2858;SDS011;1437;53.250;10.406;2022-11-04T04:48:14;7.60;;;4.47;;
2858;SDS011;1437;53.250;10.406;2022-11-04T04:50:43;7.87;;;4.50;;
2858;SDS011;1437;53.250;10.406;2022-11-04T04:53:13;5.97;;;3.70;;
2858;SDS011;1437;53.250;10.406;2022-11-04T04:55:41;6.10;;;4.17;;
2858;SDS011;1437;53.250;10.406;2022-11-04T04:58:08;8.17;;;4.60;;
2858;SDS011;1437;53.250;10.406;2022-11-04T05:00:35;7.17;;;4.40;;
2858;SDS011;1437;53.250;10.406;2022-11-04T05:03:05;9.27;;;3.77;;
2858;SDS011;1437;53.250;10.406;2022-11-04T05:05:32;5.33;;;3.60;;
2858;SDS011;1437;53.250;10.406;2022-11-04T05:08:02;6.10;;;4.00;;
2858;SDS011;1437;53.250;10.406;2022-11-04T05:10:30;3.27;;;2.70;;
2858;SDS011;1437;53.250;10.406;2022-11-04T05:12:58;5.83;;;4.40;;
2858;SDS011;1437;53.250;10.406;2022-11-04T05:15:43;5.40;;;3.63;;
2858;SDS011;1437;53.250;10.406;2022-11-04T05:18:10;6.40;;;3.63;;
2858;SDS011;1437;53.250;10.406;2022-11-04T05:20:37;7.00;;;4.00;;
2858;SDS011;1437;53.250;10.406;2022-11-04T05:23:05;6.00;;;2.80;;
2858;SDS011;1437;53.250;10.406;2022-11-04T05:25:32;3.90;;;2.90;;
2858;SDS011;1437;53.250;10.406;2022-11-04T05:28:00;4.40;;;3.20;;
2858;SDS011;1437;53.250;10.406;2022-11-04T05:30:28;6.73;;;3.87;;
2858;SDS011;1437;53.250;10.406;2022-11-04T05:32:55;7.17;;;4.50;;
2858;SDS011;1437;53.250;10.406;2022-11-04T05:35:22;6.37;;;3.87;;
2858;SDS011;1437;53.250;10.406;2022-11-04T05:37:49;8.93;;;3.27;;
2858;SDS011;1437;53.250;10.406;2022-11-04T05:40:19;4.17;;;2.43;;
2858;SDS011;1437;53.250;10.406;2022-11-04T05:42:48;4.70;;;2.70;;
2858;SDS011;1437;53.250;10.406;2022-11-04T05:45:28;4.30;;;2.90;;
2858;SDS011;1437;53.250;10.406;2022-11-04T05:47:57;4.07;;;3.20;;
2858;SDS011;1437;53.250;10.406;2022-11-04T05:50:26;5.67;;;3.20;;
2858;SDS011;1437;53.250;10.406;2022-11-04T05:52:55;3.07;;;2.53;;
2858;SDS011;1437;53.250;10.406;2022-11-04T05:55:23;5.73;;;2.93;;
2858;SDS011;1437;53.250;10.406;2022-11-04T05:57:50;3.43;;;2.53;;
2858;SDS011;1437;53.250;10.406;2022-11-04T06:00:18;4.13;;;2.90;;
2858;SDS011;1437;53.250;10.406;2022-11-04T06:02:46;4.27;;;2.60;;
2858;SDS011;1437;53.250;10.406;2022-11-04T06:05:13;3.90;;;2.33;;
2858;SDS011;1437;53.250;10.406;2022-11-04T06:07:40;3.60;;;2.50;;
2858;SDS011;1437;53.250;10.406;2022-11-04T06:10:08;4.40;;;2.90;;
2858;SDS011;1437;53.250;10.406;2022-11-04T06:12:35;6.03;;;3.47;;
2858;SDS011;1437;53.250;10.406;2022-11-04T06:15:02;4.00;;;3.20;;
2858;SDS011;1437;53.250;10.406;2022-11-04T06:17:32;10.77;;;4.53;;
2858;SDS011;1437;53.250;10.406;2022-11-04T06:19:59;3.70;;;2.93;;
2858;SDS011;1437;53.250;10.406;2022-11-04T06:22:26;4.07;;;2.73;;
2858;SDS011;1437;53.250;10.406;2022-11-04T06:24:53;8.57;;;4.97;;
2858;SDS011;1437;53.250;10.406;2022-11-04T06:27:20;4.47;;;2.70;;
2858;SDS011;1437;53.250;10.406;2022-11-04T06:29:47;3.40;;;2.40;;
2858;SDS011;1437;53.250;10.406;2022-11-04T06:32:15;4.90;;;3.03;;
2858;SDS011;1437;53.250;10.406;2022-11-04T06:34:42;5.17;;;3.23;;
2858;SDS011;1437;53.250;10.406;2022-11-04T06:37:21;7.40;;;3.50;;
2858;SDS011;1437;53.250;10.406;2022-11-04T06:39:48;4.30;;;3.07;;
2858;SDS011;1437;53.250;10.406;2022-11-04T06:42:22;5.37;;;2.83;;
2858;SDS011;1437;53.250;10.406;2022-11-04T06:44:54;3.80;;;2.60;;
2858;SDS011;1437;53.250;10.406;2022-11-04T06:47:27;3.97;;;2.70;;
2858;SDS011;1437;53.250;10.406;2022-11-04T06:49:56;4.37;;;2.30;;
2858;SDS011;1437;53.250;10.406;2022-11-04T06:52:24;4.67;;;3.03;;
2858;SDS011;1437;53.250;10.406;2022-11-04T06:54:51;4.13;;;2.60;;
2858;SDS011;1437;53.250;10.406;2022-11-04T06:57:24;6.70;;;4.07;;
2858;SDS011;1437;53.250;10.406;2022-11-04T06:59:58;5.40;;;3.57;;
2858;SDS011;1437;53.250;10.406;2022-11-04T07:02:29;3.80;;;2.90;;
2858;SDS011;1437;53.250;10.406;2022-11-04T07:04:58;4.80;;;3.23;;
2858;SDS011;1437;53.250;10.406;2022-11-04T07:07:31;5.17;;;2.60;;
2858;SDS011;1437;53.250;10.406;2022-11-04T07:09:58;4.10;;;2.70;;
2858;SDS011;1437;53.250;10.406;2022-11-04T07:12:27;3.67;;;2.93;;
2858;SDS011;1437;53.250;10.406;2022-11-04T07:15:10;4.50;;;3.27;;
2858;SDS011;1437;53.250;10.406;2022-11-04T07:17:40;4.27;;;2.77;;
2858;SDS011;1437;53.250;10.406;2022-11-04T07:20:11;4.63;;;3.13;;
2858;SDS011;1437;53.250;10.406;2022-11-04T07:22:39;4.73;;;3.07;;
2858;SDS011;1437;53.250;10.406;2022-11-04T07:25:07;3.50;;;2.70;;
2858;SDS011;1437;53.250;10.406;2022-11-04T07:27:35;4.40;;;2.90;;
2858;SDS011;1437;53.250;10.406;2022-11-04T07:30:03;4.83;;;2.90;;
2858;SDS011;1437;53.250;10.406;2022-11-04T07:32:31;2.83;;;2.53;;
2858;SDS011;1437;53.250;10.406;2022-11-04T07:34:58;4.60;;;2.70;;
2858;SDS011;1437;53.250;10.406;2022-11-04T07:37:28;3.30;;;3.00;;
2858;SDS011;1437;53.250;10.406;2022-11-04T07:42:45;4.53;;;3.33;;
2858;SDS011;1437;53.250;10.406;2022-11-04T07:45:14;5.27;;;2.93;;
2858;SDS011;1437;53.250;10.406;2022-11-04T07:47:42;3.73;;;3.30;;
2858;SDS011;1437;53.250;10.406;2022-11-04T07:50:12;3.87;;;3.40;;
2858;SDS011;1437;53.250;10.406;2022-11-04T07:52:42;4.40;;;3.37;;
2858;SDS011;1437;53.250;10.406;2022-11-04T07:55:10;3.87;;;2.97;;
2858;SDS011;1437;53.250;10.406;2022-11-04T07:57:38;4.00;;;2.83;;
2858;SDS011;1437;53.250;10.406;2022-11-04T08:00:09;4.50;;;3.33;;
2858;SDS011;1437;53.250;10.406;2022-11-04T08:02:48;4.60;;;3.13;;
2858;SDS011;1437;53.250;10.406;2022-11-04T08:05:25;4.70;;;3.77;;
2858;SDS011;1437;53.250;10.406;2022-11-04T08:07:55;6.00;;;3.23;;
2858;SDS011;1437;53.250;10.406;2022-11-04T08:10:28;4.23;;;2.60;;
2858;SDS011;1437;53.250;10.406;2022-11-04T08:13:07;3.63;;;3.07;;
2858;SDS011;1437;53.250;10.406;2022-11-04T08:15:53;4.10;;;3.13;;
2858;SDS011;1437;53.250;10.406;2022-11-04T08:18:27;4.33;;;2.97;;
2858;SDS011;1437;53.250;10.406;2022-11-04T08:21:00;11.60;;;3.40;;
2858;SDS011;1437;53.250;10.406;2022-11-04T08:23:30;4.27;;;2.67;;
2858;SDS011;1437;53.250;10.406;2022-11-04T08:25:59;3.63;;;3.00;;
2858;SDS011;1437;53.250;10.406;2022-11-04T08:28:27;4.80;;;2.97;;
2858;SDS011;1437;53.250;10.406;2022-11-04T08:30:58;3.47;;;2.70;;
2858;SDS011;1437;53.250;10.406;2022-11-04T08:33:29;3.40;;;2.70;;
2858;SDS011;1437;53.250;10.406;2022-11-04T08:36:04;6.27;;;3.13;;
2858;SDS011;1437;53.250;10.406;2022-11-04T08:38:36;4.70;;;3.40;;
2858;SDS011;1437;53.250;10.406;2022-11-04T08:41:04;5.70;;;3.10;;
2858;SDS011;1437;53.250;10.406;2022-11-04T08:43:33;4.40;;;3.70;;
2858;SDS011;1437;53.250;10.406;2022-11-04T08:46:02;3.63;;;2.90;;
2858;SDS011;1437;53.250;10.406;2022-11-04T08:48:31;3.70;;;3.00;;
2858;SDS011;1437;53.250;10.406;2022-11-04T08:51:11;5.03;;;2.60;;
2858;SDS011;1437;53.250;10.406;2022-11-04T08:53:51;3.93;;;3.10;;
2858;SDS011;1437;53.250;10.406;2022-11-04T08:56:22;2.97;;;1.97;;
2858;SDS011;1437;53.250;10.406;2022-11-04T08:58:51;4.67;;;2.50;;
2858;SDS011;1437;53.250;10.406;2022-11-04T09:01:19;3.63;;;2.47;;
2858;SDS011;1437;53.250;10.406;2022-11-04T09:03:47;5.20;;;3.10;;
2858;SDS011;1437;53.250;10.406;2022-11-04T09:06:21;3.93;;;2.40;;
2858;SDS011;1437;53.250;10.406;2022-11-04T09:08:51;2.87;;;2.40;;
2858;SDS011;1437;53.250;10.406;2022-11-04T09:11:32;5.10;;;3.27;;
2858;SDS011;1437;53.250;10.406;2022-11-04T09:14:02;5.20;;;3.10;;
2858;SDS011;1437;53.250;10.406;2022-11-04T09:16:35;4.20;;;2.60;;
2858;SDS011;1437;53.250;10.406;2022-11-04T09:19:06;4.03;;;2.70;;
2858;SDS011;1437;53.250;10.406;2022-11-04T09:22:09;2.90;;;2.60;;
2858;SDS011;1437;53.250;10.406;2022-11-04T09:24:44;4.03;;;2.07;;
2858;SDS011;1437;53.250;10.406;2022-11-04T09:27:34;3.93;;;2.90;;
2858;SDS011;1437;53.250;10.406;2022-11-04T09:30:30;5.20;;;2.93;;
2858;SDS011;1437;53.250;10.406;2022-11-04T09:33:07;3.93;;;2.93;;
2858;SDS011;1437;53.250;10.406;2022-11-04T09:38:29;4.17;;;2.53;;
2858;SDS011;1437;53.250;10.406;2022-11-04T09:40:58;3.60;;;2.50;;
2858;SDS011;1437;53.250;10.406;2022-11-04T09:43:35;3.33;;;2.77;;
2858;SDS011;1437;53.250;10.406;2022-11-04T09:46:12;3.53;;;2.27;;
2858;SDS011;1437;53.250;10.406;2022-11-04T09:48:43;4.03;;;2.13;;
2858;SDS011;1437;53.250;10.406;2022-11-04T09:51:29;4.10;;;2.30;;
2858;SDS011;1437;53.250;10.406;2022-11-04T09:54:09;2.87;;;2.00;;
2858;SDS011;1437;53.250;10.406;2022-11-04T09:56:48;4.13;;;3.10;;
2858;SDS011;1437;53.250;10.406;2022-11-04T09:59:19;3.93;;;2.80;;
2858;SDS011;1437;53.250;10.406;2022-11-04T10:01:50;4.43;;;2.30;;
2858;SDS011;1437;53.250;10.406;2022-11-04T10:04:24;3.57;;;2.60;;
2858;SDS011;1437;53.250;10.406;2022-11-04T10:06:59;2.90;;;2.37;;
2858;SDS011;1437;53.250;10.406;2022-11-04T10:09:34;4.47;;;2.63;;
2858;SDS011;1437;53.250;10.406;2022-11-04T10:12:12;4.33;;;3.63;;
2858;SDS011;1437;53.250;10.406;2022-11-04T10:17:42;3.93;;;2.80;;
2858;SDS011;1437;53.250;10.406;2022-11-04T10:20:28;3.20;;;2.53;;
2858;SDS011;1437;53.250;10.406;2022-11-04T10:23:00;3.50;;;2.80;;
2858;SDS011;1437;53.250;10.406;2022-11-04T10:25:29;4.83;;;2.93;;
2858;SDS011;1437;53.250;10.406;2022-11-04T10:27:58;5.03;;;3.37;;
2858;SDS011;1437;53.250;10.406;2022-11-04T10:30:25;4.80;;;3.40;;
2858;SDS011;1437;53.250;10.406;2022-11-04T10:33:00;5.37;;;3.40;;
2858;SDS011;1437;53.250;10.406;2022-11-04T10:35:32;4.80;;;3.17;;
2858;SDS011;1437;53.250;10.406;2022-11-04T10:38:09;3.90;;;3.03;;
2858;SDS011;1437;53.250;10.406;2022-11-04T10:40:38;5.80;;;2.83;;
2858;SDS011;1437;53.250;10.406;2022-11-04T10:43:14;4.00;;;2.77;;
2858;SDS011;1437;53.250;10.406;2022-11-04T10:45:45;5.90;;;3.20;;
2858;SDS011;1437;53.250;10.406;2022-11-04T10:48:15;4.13;;;3.03;;
2858;SDS011;1437;53.250;10.406;2022-11-04T10:50:46;3.77;;;2.80;;
2858;SDS011;1437;53.250;10.406;2022-11-04T10:53:17;4.30;;;3.20;;
2858;SDS011;1437;53.250;10.406;2022-11-04T10:55:48;4.70;;;3.37;;
2858;SDS011;1437;53.250;10.406;2022-11-04T10:58:19;3.70;;;2.90;;
2858;SDS011;1437;53.250;10.406;2022-11-04T11:00:49;6.50;;;3.93;;
2858;SDS011;1437;53.250;10.406;2022-11-04T11:03:24;7.03;;;4.13;;
2858;SDS011;1437;53.250;10.406;2022-11-04T11:08:45;4.87;;;2.80;;
2858;SDS011;1437;53.250;10.406;2022-11-04T11:11:14;4.67;;;3.53;;
2858;SDS011;1437;53.250;10.406;2022-11-04T11:13:43;3.43;;;2.37;;
2858;SDS011;1437;53.250;10.406;2022-11-04T11:16:12;4.17;;;2.80;;
2858;SDS011;1437;53.250;10.406;2022-11-04T11:19:06;5.17;;;2.50;;
2858;SDS011;1437;53.250;10.406;2022-11-04T11:21:40;5.70;;;2.40;;
2858;SDS011;1437;53.250;10.406;2022-11-04T11:24:12;4.77;;;2.93;;
2858;SDS011;1437;53.250;10.406;2022-11-04T11:26:41;4.23;;;2.40;;
2858;SDS011;1437;53.250;10.406;2022-11-04T11:29:14;3.57;;;2.20;;
2858;SDS011;1437;53.250;10.406;2022-11-04T11:31:45;3.90;;;1.93;;
2858;SDS011;1437;53.250;10.406;2022-11-04T11:34:14;3.63;;;2.30;;
2858;SDS011;1437;53.250;10.406;2022-11-04T11:36:41;4.07;;;2.77;;
2858;SDS011;1437;53.250;10.406;2022-11-04T11:39:16;4.20;;;2.30;;
2858;SDS011;1437;53.250;10.406;2022-11-04T11:41:53;3.80;;;2.07;;
2858;SDS011;1437;53.250;10.406;2022-11-04T11:44:23;3.63;;;2.30;;
2858;SDS011;1437;53.250;10.406;2022-11-04T11:46:56;3.83;;;2.30;;
2858;SDS011;1437;53.250;10.406;2022-11-04T11:49:26;3.37;;;2.33;;
2858;SDS011;1437;53.250;10.406;2022-11-04T11:51:54;3.40;;;2.20;;
2858;SDS011;1437;53.250;10.406;2022-11-04T11:54:28;3.13;;;1.90;;
2858;SDS011;1437;53.250;10.406;2022-11-04T11:56:58;2.53;;;1.90;;
2858;SDS011;1437;53.250;10.406;2022-11-04T11:59:29;4.00;;;1.87;;
2858;SDS011;1437;53.250;10.406;2022-11-04T12:02:03;3.10;;;1.67;;
2858;SDS011;1437;53.250;10.406;2022-11-04T12:04:37;2.63;;;1.70;;
2858;SDS011;1437;53.250;10.406;2022-11-04T12:07:12;4.50;;;3.47;;
2858;SDS011;1437;53.250;10.406;2022-11-04T12:09:54;3.20;;;2.47;;
2858;SDS011;1437;53.250;10.406;2022-11-04T12:12:35;4.57;;;2.50;;
2858;SDS011;1437;53.250;10.406;2022-11-04T12:15:07;2.83;;;1.70;;
2858;SDS011;1437;53.250;10.406;2022-11-04T12:17:43;3.30;;;1.93;;
2858;SDS011;1437;53.250;10.406;2022-11-04T12:23:06;5.40;;;3.10;;
2858;SDS011;1437;53.250;10.406;2022-11-04T12:25:38;4.10;;;2.80;;
2858;SDS011;1437;53.250;10.406;2022-11-04T12:28:17;4.50;;;2.10;;
2858;SDS011;1437;53.250;10.406;2022-11-04T12:30:51;4.00;;;2.03;;
2858;SDS011;1437;53.250;10.406;2022-11-04T12:33:24;2.80;;;1.73;;
2858;SDS011;1437;53.250;10.406;2022-11-04T12:36:02;5.00;;;2.20;;
2858;SDS011;1437;53.250;10.406;2022-11-04T12:38:41;4.00;;;1.50;;
2858;SDS011;1437;53.250;10.406;2022-11-04T12:41:17;2.30;;;1.50;;
2858;SDS011;1437;53.250;10.406;2022-11-04T12:43:49;3.80;;;1.87;;
2858;SDS011;1437;53.250;10.406;2022-11-04T12:46:21;5.03;;;2.03;;
2858;SDS011;1437;53.250;10.406;2022-11-04T12:49:00;2.40;;;1.70;;
2858;SDS011;1437;53.250;10.406;2022-11-04T12:51:39;3.03;;;1.70;;
2858;SDS011;1437;53.250;10.406;2022-11-04T12:54:17;3.17;;;1.50;;
2858;SDS011;1437;53.250;10.406;2022-11-04T12:56:49;3.70;;;2.10;;
2858;SDS011;1437;53.250;10.406;2022-11-04T13:02:09;2.87;;;2.10;;
2858;SDS011;1437;53.250;10.406;2022-11-04T13:08:01;3.27;;;1.93;;
2858;SDS011;1437;53.250;10.406;2022-11-04T13:10:31;2.53;;;1.67;;
2858;SDS011;1437;53.250;10.406;2022-11-04T13:13:28;3.47;;;1.90;;
2858;SDS011;1437;53.250;10.406;2022-11-04T13:15:58;6.37;;;2.67;;
2858;SDS011;1437;53.250;10.406;2022-11-04T13:18:29;3.80;;;1.57;;
2858;SDS011;1437;53.250;10.406;2022-11-04T13:21:16;4.00;;;1.70;;
2858;SDS011;1437;53.250;10.406;2022-11-04T13:23:48;2.00;;;1.30;;
2858;SDS011;1437;53.250;10.406;2022-11-04T13:26:19;3.40;;;1.73;;
2858;SDS011;1437;53.250;10.406;2022-11-04T13:28:48;2.87;;;1.40;;
2858;SDS011;1437;53.250;10.406;2022-11-04T13:31:21;4.23;;;1.80;;
2858;SDS011;1437;53.250;10.406;2022-11-04T13:33:55;4.37;;;2.10;;
2858;SDS011;1437;53.250;10.406;2022-11-04T13:36:36;4.47;;;2.10;;
2858;SDS011;1437;53.250;10.406;2022-11-04T13:39:07;3.27;;;1.90;;
2858;SDS011;1437;53.250;10.406;2022-11-04T13:41:39;3.20;;;1.73;;
2858;SDS011;1437;53.250;10.406;2022-11-04T13:44:13;6.23;;;3.80;;
2858;SDS011;1437;53.250;10.406;2022-11-04T13:46:47;6.60;;;2.23;;
2858;SDS011;1437;53.250;10.406;2022-11-04T13:49:20;3.77;;;1.53;;
2858;SDS011;1437;53.250;10.406;2022-11-04T13:52:02;2.30;;;1.43;;
2858;SDS011;1437;53.250;10.406;2022-11-04T13:54:32;5.40;;;2.53;;
2858;SDS011;1437;53.250;10.406;2022-11-04T13:57:09;4.40;;;1.70;;
2858;SDS011;1437;53.250;10.406;2022-11-04T14:02:51;3.57;;;2.00;;
2858;SDS011;1437;53.250;10.406;2022-11-04T14:08:24;2.26;;;1.64;;
2858;SDS011;1437;53.250;10.406;2022-11-04T14:11:02;2.37;;;1.57;;
2858;SDS011;1437;53.250;10.406;2022-11-04T14:16:43;3.03;;;1.80;;
2858;SDS011;1437;53.250;10.406;2022-11-04T14:22:12;3.17;;;2.30;;
2858;SDS011;1437;53.250;10.406;2022-11-04T14:24:40;3.07;;;2.10;;
2858;SDS011;1437;53.250;10.406;2022-11-04T14:27:22;4.17;;;2.20;;
2858;SDS011;1437;53.250;10.406;2022-11-04T14:29:53;2.70;;;1.80;;
2858;SDS011;1437;53.250;10.406;2022-11-04T14:32:25;6.20;;;2.47;;
2858;SDS011;1437;53.250;10.406;2022-11-04T14:35:02;4.13;;;2.30;;
2858;SDS011;1437;53.250;10.406;2022-11-04T14:37:38;2.40;;;1.73;;
2858;SDS011;1437;53.250;10.406;2022-11-04T14:40:22;6.97;;;3.20;;
2858;SDS011;1437;53.250;10.406;2022-11-04T14:42:58;3.93;;;2.80;;
2858;SDS011;1437;53.250;10.406;2022-11-04T14:45:54;7.10;;;2.57;;
2858;SDS011;1437;53.250;10.406;2022-11-04T14:48:31;5.27;;;2.27;;
2858;SDS011;1437;53.250;10.406;2022-11-04T14:51:17;5.10;;;2.30;;
2858;SDS011;1437;53.250;10.406;2022-11-04T14:54:02;5.77;;;1.90;;
2858;SDS011;1437;53.250;10.406;2022-11-04T14:56:30;4.77;;;2.20;;
2858;SDS011;1437;53.250;10.406;2022-11-04T14:58:58;3.87;;;2.33;;
2858;SDS011;1437;53.250;10.406;2022-11-04T15:01:27;4.57;;;1.90;;
2858;SDS011;1437;53.250;10.406;2022-11-04T15:03:55;2.10;;;1.57;;
2858;SDS011;1437;53.250;10.406;2022-11-04T15:06:41;3.30;;;2.10;;
2858;SDS011;1437;53.250;10.406;2022-11-04T15:09:23;2.70;;;2.00;;
2858;SDS011;1437;53.250;10.406;2022-11-04T15:12:01;7.70;;;2.30;;
2858;SDS011;1437;53.250;10.406;2022-11-04T15:20:49;2.80;;;1.97;;
2858;SDS011;1437;53.250;10.406;2022-11-04T15:26:56;3.67;;;2.13;;
2858;SDS011;1437;53.250;10.406;2022-11-04T15:29:31;6.13;;;3.70;;
2858;SDS011;1437;53.250;10.406;2022-11-04T15:32:14;3.80;;;2.60;;
2858;SDS011;1437;53.250;10.406;2022-11-04T15:34:49;5.23;;;2.87;;
2858;SDS011;1437;53.250;10.406;2022-11-04T15:37:21;3.23;;;2.20;;
2858;SDS011;1437;53.250;10.406;2022-11-04T15:39:54;3.30;;;2.33;;
2858;SDS011;1437;53.250;10.406;2022-11-04T15:42:34;7.03;;;2.90;;
2858;SDS011;1437;53.250;10.406;2022-11-04T15:48:27;5.53;;;3.30;;
2858;SDS011;1437;53.250;10.406;2022-11-04T15:51:13;5.10;;;2.57;;
2858;SDS011;1437;53.250;10.406;2022-11-04T15:53:52;7.77;;;3.27;;
2858;SDS011;1437;53.250;10.406;2022-11-04T15:56:26;4.50;;;2.47;;
2858;SDS011;1437;53.250;10.406;2022-11-04T15:59:05;4.13;;;2.43;;
2858;SDS011;1437;53.250;10.406;2022-11-04T16:01:39;5.83;;;3.00;;
2858;SDS011;1437;53.250;10.406;2022-11-04T16:04:10;3.40;;;2.33;;
2858;SDS011;1437;53.250;10.406;2022-11-04T16:06:41;4.00;;;2.47;;
2858;SDS011;1437;53.250;10.406;2022-11-04T16:09:18;4.10;;;2.43;;
2858;SDS011;1437;53.250;10.406;2022-11-04T16:12:07;5.67;;;3.87;;
2858;SDS011;1437;53.250;10.406;2022-11-04T16:14:45;16.70;;;9.63;;
2858;SDS011;1437;53.250;10.406;2022-11-04T16:17:13;18.20;;;11.00;;